Time;durP1;ratioP1;P1;durP2;ratioP2;P2;SDS_P1;SDS_P2;PMS_P1;PMS_P2;Temp;Humidity;BMP_temperature;BMP_pressure;BME280_temperature;BME280_humidity;BME280_pressure;Samples;Min_cycle;Max_cycle;Signal;HPM_P1;HPM_P2
2022/09/13 00:00:59;;;;;;;6.00;3.60;;;;;;;;;;4999626;28;20473;-63
2022/09/13 00:03:25;;;;;;;5.75;3.80;;;;;;;;;;4998482;28;20056;-67
2022/09/13 00:05:51;;;;;;;5.07;3.28;;;;;;;;;;4997348;28;20022;-63
2022/09/13 00:08:17;;;;;;;3.55;3.20;;;;;;;;;;5001971;28;20092;-63
2022/09/13 00:10:43;;;;;;;5.85;3.38;;;;;;;;;;5003336;28;20029;-64
2022/09/13 00:13:11;;;;;;;4.60;3.28;;;;;;;;;;5004609;28;20490;-63
2022/09/13 00:15:42;;;;;;;3.45;3.15;;;;;;;;;;4999366;28;20534;-62
2022/09/13 00:18:08;;;;;;;5.97;3.38;;;;;;;;;;5002927;28;20032;-63
2022/09/13 00:20:34;;;;;;;4.05;3.50;;;;;;;;;;5002222;28;20025;-64
2022/09/13 00:22:59;;;;;;;4.55;3.40;;;;;;;;;;5001760;28;20072;-63
2022/09/13 00:25:24;;;;;;;3.97;3.58;;;;;;;;;;4998766;28;20029;-63
2022/09/13 00:27:50;;;;;;;6.57;3.65;;;;;;;;;;4999014;28;20512;-62
2022/09/13 00:30:15;;;;;;;9.10;3.55;;;;;;;;;;5000472;28;20536;-64
2022/09/13 00:32:41;;;;;;;4.20;3.33;;;;;;;;;;4999812;28;20041;-62
2022/09/13 00:35:07;;;;;;;9.98;3.75;;;;;;;;;;4997137;28;20029;-63
2022/09/13 00:37:33;;;;;;;6.07;3.65;;;;;;;;;;5000520;28;20485;-63
2022/09/13 00:39:59;;;;;;;3.67;3.38;;;;;;;;;;5001650;28;20042;-62
2022/09/13 00:42:26;;;;;;;7.10;3.50;;;;;;;;;;5005611;28;20427;-63
2022/09/13 00:45:05;;;;;;;5.32;3.72;;;;;;;;;;5006720;28;20529;-63
2022/09/13 00:47:36;;;;;;;3.35;3.05;;;;;;;;;;5000095;28;20076;-63
2022/09/13 00:50:34;;;;;;;4.63;3.35;;;;;;;;;;5006487;28;20034;-65
2022/09/13 00:53:21;;;;;;;4.25;3.70;;;;;;;;;;5003342;28;20402;-64
2022/09/13 00:56:12;;;;;;;4.38;3.60;;;;;;;;;;4999574;28;20397;-64
2022/09/13 00:58:48;;;;;;;5.28;3.53;;;;;;;;;;4996720;28;20092;-65
2022/09/13 01:01:16;;;;;;;5.75;4.20;;;;;;;;;;5001591;28;20057;-64
2022/09/13 01:03:43;;;;;;;5.03;3.78;;;;;;;;;;5001668;28;20044;-64
2022/09/13 01:06:19;;;;;;;5.90;3.95;;;;;;;;;;4999818;28;20477;-62
2022/09/13 01:08:47;;;;;;;6.05;3.95;;;;;;;;;;5001424;28;20035;-67
2022/09/13 01:11:23;;;;;;;5.45;4.25;;;;;;;;;;5001991;28;20482;-63
2022/09/13 01:13:50;;;;;;;7.88;4.18;;;;;;;;;;5003909;28;20092;-64
2022/09/13 01:16:15;;;;;;;7.38;4.20;;;;;;;;;;4998724;28;20030;-63
2022/09/13 01:18:41;;;;;;;6.18;3.97;;;;;;;;;;5004484;28;20034;-63
2022/09/13 01:21:27;;;;;;;6.10;4.05;;;;;;;;;;5004728;28;20248;-63
2022/09/13 01:24:14;;;;;;;5.18;4.13;;;;;;;;;;4994181;28;20022;-63
2022/09/13 01:26:55;;;;;;;4.05;3.63;;;;;;;;;;5006855;28;20501;-63
2022/09/13 01:29:41;;;;;;;6.13;4.32;;;;;;;;;;5000871;28;20041;-63
2022/09/13 01:32:34;;;;;;;5.03;3.97;;;;;;;;;;5000323;28;20421;-62
2022/09/13 01:35:41;;;;;;;6.22;4.28;;;;;;;;;;4999851;28;20392;-63
2022/09/13 01:38:17;;;;;;;5.80;4.10;;;;;;;;;;5004423;28;20034;-63
2022/09/13 01:40:43;;;;;;;6.07;4.20;;;;;;;;;;5003408;28;20486;-63
2022/09/13 01:43:23;;;;;;;6.05;4.35;;;;;;;;;;5023334;22;20038;-64
2022/09/13 01:46:05;;;;;;;6.68;4.75;;;;;;;;;;4998309;28;20041;-65
2022/09/13 01:48:40;;;;;;;12.85;5.00;;;;;;;;;;4995064;28;20112;-63
2022/09/13 01:51:19;;;;;;;12.85;5.75;;;;;;;;;;5004067;28;20029;-62
2022/09/13 01:54:15;;;;;;;5.88;4.60;;;;;;;;;;5002130;28;20038;-65
2022/09/13 01:56:59;;;;;;;5.40;4.70;;;;;;;;;;5003740;28;20053;-64
2022/09/13 01:59:42;;;;;;;5.70;4.47;;;;;;;;;;5003096;28;20116;-64
2022/09/13 02:02:11;;;;;;;6.18;4.45;;;;;;;;;;4998922;28;20049;-64
2022/09/13 02:04:41;;;;;;;10.52;4.72;;;;;;;;;;4998767;28;20046;-64
2022/09/13 02:07:15;;;;;;;7.07;4.70;;;;;;;;;;5002482;28;20127;-64
2022/09/13 02:09:47;;;;;;;5.05;4.53;;;;;;;;;;5004211;28;20038;-64
2022/09/13 02:12:18;;;;;;;6.25;4.70;;;;;;;;;;5005141;28;20029;-64
2022/09/13 02:14:59;;;;;;;6.95;4.55;;;;;;;;;;5005238;28;20437;-64
2022/09/13 02:17:28;;;;;;;5.93;4.50;;;;;;;;;;5004847;28;20038;-65
2022/09/13 02:20:06;;;;;;;7.78;4.78;;;;;;;;;;4999509;28;20044;-64
2022/09/13 02:22:40;;;;;;;8.43;4.70;;;;;;;;;;5003765;28;20045;-64
2022/09/13 02:25:11;;;;;;;7.97;4.93;;;;;;;;;;4998340;28;20042;-64
2022/09/13 02:27:39;;;;;;;7.13;4.53;;;;;;;;;;5005143;28;20065;-64
2022/09/13 02:30:07;;;;;;;7.88;4.90;;;;;;;;;;4998228;28;20026;-64
2022/09/13 02:32:39;;;;;;;7.28;4.82;;;;;;;;;;5004996;28;20053;-64
2022/09/13 02:35:14;;;;;;;6.13;4.57;;;;;;;;;;4996600;28;20041;-64
2022/09/13 02:37:44;;;;;;;6.43;4.55;;;;;;;;;;5000109;28;20034;-64
2022/09/13 02:40:16;;;;;;;8.57;4.45;;;;;;;;;;5000277;28;20091;-63
2022/09/13 02:42:58;;;;;;;7.70;4.88;;;;;;;;;;5000379;28;20089;-64
2022/09/13 02:45:34;;;;;;;8.00;4.88;;;;;;;;;;5001173;28;20033;-64
2022/09/13 02:48:07;;;;;;;7.13;4.43;;;;;;;;;;5002206;28;20053;-63
2022/09/13 02:50:40;;;;;;;;;;;;;;;;;;4998706;28;20164;-64
2022/09/13 02:53:26;;;;;;;;;;;;;;;;;;5019649;28;20432;-64
2022/09/13 02:56:19;;;;;;;8.55;4.53;;;;;;;;;;4998692;28;20331;-63
2022/09/13 02:59:06;;;;;;;7.45;4.68;;;;;;;;;;5006602;28;20510;-64
2022/09/13 03:01:35;;;;;;;4.95;4.13;;;;;;;;;;5001511;28;20038;-64
2022/09/13 03:04:02;;;;;;;6.70;4.32;;;;;;;;;;4999993;28;20050;-64
2022/09/13 03:06:28;;;;;;;7.90;4.60;;;;;;;;;;4997724;28;20030;-64
2022/09/13 03:08:57;;;;;;;8.57;4.65;;;;;;;;;;5005770;28;20029;-64
2022/09/13 03:11:56;;;;;;;5.85;4.50;;;;;;;;;;5001262;28;20083;-64
2022/09/13 03:14:44;;;;;;;6.57;4.80;;;;;;;;;;4999923;28;20032;-65
2022/09/13 03:17:28;;;;;;;6.40;4.70;;;;;;;;;;5005070;28;20513;-65
2022/09/13 03:20:08;;;;;;;5.63;4.63;;;;;;;;;;5006235;28;20030;-65
2022/09/13 03:22:52;;;;;;;7.70;5.05;;;;;;;;;;5006498;28;20425;-63
2022/09/13 03:25:53;;;;;;;7.07;4.60;;;;;;;;;;4999263;28;20576;-65
2022/09/13 03:28:43;;;;;;;8.60;4.43;;;;;;;;;;4993773;28;20038;-64
2022/09/13 03:31:17;;;;;;;10.82;4.55;;;;;;;;;;4998305;28;20050;-66
2022/09/13 03:34:10;;;;;;;6.80;4.60;;;;;;;;;;5004417;28;20401;-65
2022/09/13 03:36:48;;;;;;;8.55;4.60;;;;;;;;;;5004427;28;20034;-64
2022/09/13 03:39:29;;;;;;;5.32;4.05;;;;;;;;;;5004413;28;20055;-65
2022/09/13 03:41:59;;;;;;;6.80;4.43;;;;;;;;;;5002827;28;20021;-66
2022/09/13 03:44:27;;;;;;;4.80;3.80;;;;;;;;;;4999403;28;20529;-65
2022/09/13 03:46:57;;;;;;;5.88;4.43;;;;;;;;;;5004060;28;20502;-65
2022/09/13 03:49:25;;;;;;;5.55;3.90;;;;;;;;;;5001655;28;20109;-65
2022/09/13 03:51:51;;;;;;;9.68;4.40;;;;;;;;;;5002156;28;21107;-65
2022/09/13 03:54:23;;;;;;;8.45;4.35;;;;;;;;;;5004104;28;20199;-65
2022/09/13 03:57:12;;;;;;;5.63;4.05;;;;;;;;;;5003638;28;20100;-64
2022/09/13 03:59:44;;;;;;;6.18;4.20;;;;;;;;;;5004036;28;20047;-65
2022/09/13 04:02:10;;;;;;;4.57;3.85;;;;;;;;;;4998956;28;20030;-65
2022/09/13 04:04:40;;;;;;;6.50;4.47;;;;;;;;;;5003868;28;20038;-65
2022/09/13 04:07:07;;;;;;;5.55;4.32;;;;;;;;;;5002705;28;20113;-65
2022/09/13 04:09:33;;;;;;;10.63;4.00;;;;;;;;;;5003920;28;20111;-65
2022/09/13 04:11:58;;;;;;;5.95;4.35;;;;;;;;;;5007336;28;20033;-64
2022/09/13 04:14:25;;;;;;;7.15;5.13;;;;;;;;;;5006588;28;20064;-66
2022/09/13 04:16:56;;;;;;;9.18;4.10;;;;;;;;;;5006806;28;20045;-66
2022/09/13 04:19:22;;;;;;;10.88;4.35;;;;;;;;;;5003531;28;20038;-66
2022/09/13 04:21:49;;;;;;;5.70;4.90;;;;;;;;;;4999258;28;20354;-62
2022/09/13 04:24:15;;;;;;;5.95;4.20;;;;;;;;;;5002993;28;20438;-66
2022/09/13 04:26:41;;;;;;;5.97;4.43;;;;;;;;;;5000596;28;20069;-62
2022/09/13 04:29:06;;;;;;;6.63;4.20;;;;;;;;;;5002549;28;20027;-64
2022/09/13 04:31:32;;;;;;;10.00;5.65;;;;;;;;;;5003507;28;20434;-65
2022/09/13 04:33:59;;;;;;;7.88;5.55;;;;;;;;;;5006793;28;20121;-64
2022/09/13 04:36:24;;;;;;;9.77;5.75;;;;;;;;;;4999127;28;20120;-64
2022/09/13 04:38:50;;;;;;;10.05;5.60;;;;;;;;;;5002489;28;20321;-64
2022/09/13 04:41:16;;;;;;;10.63;5.72;;;;;;;;;;5008235;28;20038;-65
2022/09/13 04:43:41;;;;;;;10.38;5.80;;;;;;;;;;5004380;28;20096;-65
2022/09/13 04:46:07;;;;;;;9.68;6.45;;;;;;;;;;5005911;28;20061;-65
2022/09/13 04:48:33;;;;;;;9.35;6.05;;;;;;;;;;5005515;28;20034;-64
2022/09/13 04:51:04;;;;;;;10.32;5.82;;;;;;;;;;5000255;28;20096;-64
2022/09/13 04:53:31;;;;;;;10.45;6.50;;;;;;;;;;5024746;28;20022;-65
2022/09/13 04:56:03;;;;;;;9.55;6.78;;;;;;;;;;5005343;28;20053;-64
2022/09/13 04:58:29;;;;;;;;;;;;;;;;;;5000442;28;20033;-65
2022/09/13 05:01:03;;;;;;;9.48;6.15;;;;;;;;;;5006307;28;19921;-64
2022/09/13 05:03:30;;;;;;;9.23;6.30;;;;;;;;;;5002458;28;20038;-66
2022/09/13 05:06:07;;;;;;;6.57;4.72;;;;;;;;;;5004987;28;20122;-64
2022/09/13 05:08:33;;;;;;;8.25;5.05;;;;;;;;;;5004026;28;20501;-64
2022/09/13 05:11:02;;;;;;;5.97;4.45;;;;;;;;;;5003599;28;20084;-65
2022/09/13 05:13:28;;;;;;;7.82;5.05;;;;;;;;;;4989183;28;20084;-64
2022/09/13 05:15:57;;;;;;;9.23;5.30;;;;;;;;;;5002081;28;20436;-63
2022/09/13 05:18:30;;;;;;;7.05;4.85;;;;;;;;;;5002248;28;20029;-65
2022/09/13 05:20:59;;;;;;;12.93;5.50;;;;;;;;;;5002856;28;20381;-64
2022/09/13 05:23:27;;;;;;;7.80;4.25;;;;;;;;;;5006439;28;20030;-66
2022/09/13 05:25:53;;;;;;;4.80;3.92;;;;;;;;;;5000995;28;20030;-66
2022/09/13 05:28:20;;;;;;;10.25;4.40;;;;;;;;;;5004100;28;20096;-64
2022/09/13 05:31:11;;;;;;;5.47;4.10;;;;;;;;;;5003633;28;20453;-64
2022/09/13 05:33:38;;;;;;;4.88;3.75;;;;;;;;;;5006282;28;20057;-64
2022/09/13 05:36:04;;;;;;;8.98;4.03;;;;;;;;;;4999883;28;20024;-65
2022/09/13 05:38:30;;;;;;;7.20;3.95;;;;;;;;;;5004836;28;20037;-65
2022/09/13 05:40:59;;;;;;;6.15;4.05;;;;;;;;;;5005307;28;20112;-64
2022/09/13 05:43:26;;;;;;;6.60;4.25;;;;;;;;;;5005025;28;20115;-63
2022/09/13 05:46:00;;;;;;;6.35;3.90;;;;;;;;;;5002048;28;20034;-64
2022/09/13 05:48:25;;;;;;;6.28;3.90;;;;;;;;;;5002503;28;20034;-65
2022/09/13 05:50:50;;;;;;;4.25;3.85;;;;;;;;;;5006800;28;20442;-65
2022/09/13 05:53:16;;;;;;;5.10;4.05;;;;;;;;;;5000063;28;20034;-65
2022/09/13 05:55:42;;;;;;;6.95;3.80;;;;;;;;;;5002324;28;20419;-65
2022/09/13 05:58:08;;;;;;;6.00;3.97;;;;;;;;;;5002896;28;20110;-65
2022/09/13 06:00:33;;;;;;;5.72;3.90;;;;;;;;;;5005762;28;20061;-65
2022/09/13 06:02:59;;;;;;;5.53;3.65;;;;;;;;;;5001030;28;20563;-66
2022/09/13 06:05:24;;;;;;;7.65;3.60;;;;;;;;;;5004446;28;20061;-65
2022/09/13 06:07:50;;;;;;;4.60;3.50;;;;;;;;;;5002629;28;20096;-66
2022/09/13 06:10:16;;;;;;;6.90;3.67;;;;;;;;;;5002974;28;20438;-66
2022/09/13 06:12:42;;;;;;;3.72;3.40;;;;;;;;;;4998956;28;20099;-64
2022/09/13 06:15:08;;;;;;;7.65;3.35;;;;;;;;;;5004332;28;20045;-63
2022/09/13 06:17:33;;;;;;;4.03;3.20;;;;;;;;;;5005015;28;20113;-67
2022/09/13 06:19:58;;;;;;;4.22;3.60;;;;;;;;;;5008017;28;20136;-66
2022/09/13 06:22:24;;;;;;;7.30;4.43;;;;;;;;;;5005409;28;20036;-66
2022/09/13 06:24:49;;;;;;;7.57;3.72;;;;;;;;;;5002488;28;20033;-65
2022/09/13 06:27:14;;;;;;;5.55;3.85;;;;;;;;;;5002735;28;20387;-64
2022/09/13 06:29:40;;;;;;;6.60;3.78;;;;;;;;;;5002316;28;20032;-65
2022/09/13 06:32:06;;;;;;;8.35;3.80;;;;;;;;;;5028065;28;20389;-66
2022/09/13 06:34:31;;;;;;;4.00;3.60;;;;;;;;;;5001782;28;20042;-68
2022/09/13 06:36:56;;;;;;;7.53;4.35;;;;;;;;;;5002821;28;20042;-66
2022/09/13 06:39:22;;;;;;;7.07;3.78;;;;;;;;;;5004153;28;20034;-64
2022/09/13 06:41:47;;;;;;;9.63;3.90;;;;;;;;;;5003042;28;20076;-64
2022/09/13 06:44:13;;;;;;;5.18;3.90;;;;;;;;;;5007544;28;20042;-64
2022/09/13 06:46:39;;;;;;;6.90;4.30;;;;;;;;;;4999274;28;20052;-63
2022/09/13 06:49:06;;;;;;;5.43;4.20;;;;;;;;;;5001158;28;20113;-64
2022/09/13 06:51:33;;;;;;;7.90;3.72;;;;;;;;;;5006821;28;20605;-63
2022/09/13 06:54:03;;;;;;;7.38;3.90;;;;;;;;;;5001749;28;20022;-64
2022/09/13 06:56:34;;;;;;;6.63;3.97;;;;;;;;;;4999507;28;20046;-64
2022/09/13 06:59:03;;;;;;;6.15;3.65;;;;;;;;;;4996236;28;20089;-65
2022/09/13 07:01:37;;;;;;;4.65;3.78;;;;;;;;;;4999584;28;20125;-64
2022/09/13 07:04:15;;;;;;;4.00;2.90;;;;;;;;;;5001772;28;20038;-67
2022/09/13 07:07:03;;;;;;;5.28;3.78;;;;;;;;;;4993802;28;20390;-65
2022/09/13 07:09:29;;;;;;;5.82;3.00;;;;;;;;;;5006652;28;20041;-64
2022/09/13 07:11:55;;;;;;;4.25;3.45;;;;;;;;;;5001088;28;20040;-64
2022/09/13 07:14:22;;;;;;;7.60;3.92;;;;;;;;;;5000354;28;20037;-64
2022/09/13 07:16:50;;;;;;;5.22;3.60;;;;;;;;;;5001065;28;20105;-64
2022/09/13 07:19:26;;;;;;;5.57;3.83;;;;;;;;;;4999650;28;20378;-64
2022/09/13 07:21:53;;;;;;;5.22;3.50;;;;;;;;;;5005095;28;20410;-62
2022/09/13 07:24:20;;;;;;;6.15;3.95;;;;;;;;;;5005571;28;20480;-63
2022/09/13 07:26:45;;;;;;;7.18;3.70;;;;;;;;;;5004265;28;20625;-63
2022/09/13 07:29:15;;;;;;;7.78;3.95;;;;;;;;;;5020154;28;20065;-64
2022/09/13 07:31:42;;;;;;;6.82;3.92;;;;;;;;;;5000578;28;20038;-63
2022/09/13 07:34:19;;;;;;;7.40;4.28;;;;;;;;;;5005981;28;20484;-64
2022/09/13 07:36:45;;;;;;;8.43;4.70;;;;;;;;;;5000047;28;20038;-63
2022/09/13 07:39:11;;;;;;;5.95;4.38;;;;;;;;;;4999892;28;20034;-64
2022/09/13 07:41:37;;;;;;;6.32;4.18;;;;;;;;;;5024447;28;20374;-64
2022/09/13 07:44:03;;;;;;;5.63;4.00;;;;;;;;;;5006096;28;20041;-64
2022/09/13 07:46:31;;;;;;;6.10;4.13;;;;;;;;;;5005800;28;20034;-65
2022/09/13 07:48:57;;;;;;;5.63;4.10;;;;;;;;;;5009623;28;20040;-65
2022/09/13 07:51:27;;;;;;;5.82;4.38;;;;;;;;;;5001767;28;20106;-66
2022/09/13 07:54:03;;;;;;;10.30;4.25;;;;;;;;;;5006030;28;20462;-66
2022/09/13 07:56:34;;;;;;;4.55;3.65;;;;;;;;;;4999695;28;20030;-65
2022/09/13 07:59:02;;;;;;;10.50;4.10;;;;;;;;;;5002732;28;20124;-65
2022/09/13 08:01:33;;;;;;;6.95;4.07;;;;;;;;;;5002055;28;20030;-65
2022/09/13 08:04:07;;;;;;;6.20;4.20;;;;;;;;;;5007477;28;20207;-65
2022/09/13 08:06:34;;;;;;;6.28;4.18;;;;;;;;;;5004662;28;20484;-64
2022/09/13 08:09:00;;;;;;;6.28;3.60;;;;;;;;;;5007025;28;20079;-66
2022/09/13 08:11:34;;;;;;;8.35;4.18;;;;;;;;;;5004262;28;20034;-64
2022/09/13 08:14:01;;;;;;;8.93;4.82;;;;;;;;;;5001356;28;20136;-64
2022/09/13 08:16:27;;;;;;;7.18;5.00;;;;;;;;;;5003060;28;20038;-64
2022/09/13 08:18:55;;;;;;;8.15;5.53;;;;;;;;;;5011415;28;20533;-64
2022/09/13 08:21:22;;;;;;;8.68;5.60;;;;;;;;;;5001406;28;20398;-64
2022/09/13 08:23:47;;;;;;;9.65;5.50;;;;;;;;;;5006327;28;20429;-64
2022/09/13 08:26:13;;;;;;;8.70;5.80;;;;;;;;;;5001189;28;20033;-64
2022/09/13 08:28:40;;;;;;;6.43;5.00;;;;;;;;;;5005873;28;20040;-65
2022/09/13 08:31:16;;;;;;;6.35;5.15;;;;;;;;;;5003857;28;20528;-64
2022/09/13 08:33:47;;;;;;;9.15;5.13;;;;;;;;;;5007634;28;20018;-64
2022/09/13 08:36:13;;;;;;;8.68;5.68;;;;;;;;;;5004701;28;20375;-64
2022/09/13 08:38:39;;;;;;;6.30;4.60;;;;;;;;;;5000730;28;20075;-64
2022/09/13 08:41:31;;;;;;;6.10;5.13;;;;;;;;;;5006146;28;20046;-64
2022/09/13 08:44:25;;;;;;;11.00;4.72;;;;;;;;;;5001406;28;20085;-64
2022/09/13 08:46:56;;;;;;;6.68;4.55;;;;;;;;;;5003079;28;20628;-64
2022/09/13 08:49:33;;;;;;;5.03;3.97;;;;;;;;;;5002609;28;20026;-64
2022/09/13 08:52:22;;;;;;;9.23;4.50;;;;;;;;;;5005974;28;20131;-64
2022/09/13 08:54:49;;;;;;;8.55;4.68;;;;;;;;;;4997128;28;20092;-63
2022/09/13 08:57:24;;;;;;;9.60;5.15;;;;;;;;;;5002421;28;20368;-64
2022/09/13 08:59:58;;;;;;;11.18;5.50;;;;;;;;;;5001319;28;20076;-64
2022/09/13 09:02:40;;;;;;;7.38;5.05;;;;;;;;;;5000318;28;20037;-64
2022/09/13 09:05:21;;;;;;;10.77;5.32;;;;;;;;;;4996825;28;20176;-63
2022/09/13 09:08:00;;;;;;;9.18;5.45;;;;;;;;;;4999675;28;20040;-64
2022/09/13 09:10:38;;;;;;;6.07;5.35;;;;;;;;;;4998083;28;20120;-63
2022/09/13 09:13:09;;;;;;;9.23;5.78;;;;;;;;;;4997675;28;20037;-64
2022/09/13 09:15:42;;;;;;;9.75;5.82;;;;;;;;;;4999201;28;20398;-63
2022/09/13 09:18:22;;;;;;;7.80;5.95;;;;;;;;;;5016966;28;20029;-64
2022/09/13 09:20:52;;;;;;;8.40;5.63;;;;;;;;;;4997103;28;20060;-64
2022/09/13 09:23:40;;;;;;;12.05;6.90;;;;;;;;;;4999490;28;20027;-64
2022/09/13 09:26:19;;;;;;;11.55;6.75;;;;;;;;;;4997505;28;20133;-64
2022/09/13 09:29:08;;;;;;;9.50;6.93;;;;;;;;;;5000518;28;20042;-65
2022/09/13 09:31:53;;;;;;;11.23;6.10;;;;;;;;;;4999562;28;20589;-64
2022/09/13 09:34:41;;;;;;;10.13;6.40;;;;;;;;;;5004052;28;20034;-64
2022/09/13 09:37:27;;;;;;;10.43;6.00;;;;;;;;;;5003978;28;20096;-63
2022/09/13 09:39:57;;;;;;;8.30;6.53;;;;;;;;;;5000276;28;20505;-63
2022/09/13 09:42:27;;;;;;;8.32;6.63;;;;;;;;;;5000049;28;20034;-64
2022/09/13 09:45:11;;;;;;;9.77;7.53;;;;;;;;;;5000988;28;20060;-63
2022/09/13 09:47:52;;;;;;;10.55;7.50;;;;;;;;;;5001105;28;20042;-63
2022/09/13 09:50:28;;;;;;;10.38;7.32;;;;;;;;;;5004163;28;20034;-63
2022/09/13 09:53:03;;;;;;;8.13;7.20;;;;;;;;;;4998904;28;20037;-63
2022/09/13 09:55:42;;;;;;;13.77;7.93;;;;;;;;;;5001248;28;20049;-64
2022/09/13 09:58:11;;;;;;;11.73;8.63;;;;;;;;;;4997910;28;20546;-64
2022/09/13 10:00:56;;;;;;;11.82;7.97;;;;;;;;;;5000032;28;20030;-64
2022/09/13 10:03:27;;;;;;;10.70;8.23;;;;;;;;;;4998722;28;20738;-64
2022/09/13 10:06:06;;;;;;;16.30;8.55;;;;;;;;;;4997990;28;20080;-64
2022/09/13 10:08:36;;;;;;;12.38;7.88;;;;;;;;;;4999104;28;20049;-63
2022/09/13 10:11:02;;;;;;;13.95;8.48;;;;;;;;;;5002566;28;20141;-63
2022/09/13 10:13:28;;;;;;;15.82;8.10;;;;;;;;;;5001644;28;20038;-64
2022/09/13 10:15:57;;;;;;;12.82;7.93;;;;;;;;;;5008475;28;20030;-63
2022/09/13 10:18:28;;;;;;;16.40;8.80;;;;;;;;;;5006923;28;20037;-64
2022/09/13 10:21:19;;;;;;;11.02;8.35;;;;;;;;;;5003532;28;20048;-64
2022/09/13 10:23:52;;;;;;;11.40;8.32;;;;;;;;;;4998640;28;20056;-65
2022/09/13 10:26:23;;;;;;;12.82;9.13;;;;;;;;;;5004033;28;20048;-63
2022/09/13 10:28:51;;;;;;;14.25;9.13;;;;;;;;;;5004878;28;20033;-64
2022/09/13 10:31:19;;;;;;;12.13;8.90;;;;;;;;;;5003704;28;20041;-63
2022/09/13 10:33:50;;;;;;;11.45;9.13;;;;;;;;;;4999326;28;20184;-64
2022/09/13 10:36:19;;;;;;;13.60;9.15;;;;;;;;;;5005262;28;20029;-64
2022/09/13 10:38:50;;;;;;;11.57;8.50;;;;;;;;;;5005241;28;20156;-64
2022/09/13 10:41:25;;;;;;;10.40;8.25;;;;;;;;;;5001429;28;20417;-64
2022/09/13 10:44:00;;;;;;;10.65;7.97;;;;;;;;;;5002072;28;20247;-63
2022/09/13 10:46:38;;;;;;;9.88;7.60;;;;;;;;;;5001086;28;20045;-64
2022/09/13 10:49:03;;;;;;;12.80;8.40;;;;;;;;;;4997085;28;20038;-64
2022/09/13 10:51:37;;;;;;;12.15;7.75;;;;;;;;;;5006616;28;20044;-64
2022/09/13 10:54:17;;;;;;;10.20;7.45;;;;;;;;;;5003569;28;20072;-64
2022/09/13 10:56:44;;;;;;;8.60;5.97;;;;;;;;;;5004807;28;20530;-65
2022/09/13 10:59:28;;;;;;;9.27;6.55;;;;;;;;;;5005582;28;20046;-65
2022/09/13 11:02:12;;;;;;;6.38;5.53;;;;;;;;;;5004543;28;20506;-63
2022/09/13 11:05:05;;;;;;;6.90;5.43;;;;;;;;;;5002902;28;20517;-64
2022/09/13 11:07:39;;;;;;;7.30;5.57;;;;;;;;;;5004138;28;20125;-63
2022/09/13 11:10:19;;;;;;;6.93;5.53;;;;;;;;;;5001542;28;20516;-64
2022/09/13 11:13:00;;;;;;;8.20;5.40;;;;;;;;;;4999146;28;20070;-63
2022/09/13 11:15:39;;;;;;;7.00;5.30;;;;;;;;;;4995174;28;20046;-63
2022/09/13 11:18:37;;;;;;;8.70;5.30;;;;;;;;;;4997635;28;20072;-65
2022/09/13 11:21:23;;;;;;;6.18;5.55;;;;;;;;;;4973020;28;20521;-64
2022/09/13 11:23:49;;;;;;;10.45;5.63;;;;;;;;;;5000937;28;20014;-64
2022/09/13 11:26:29;;;;;;;6.47;5.35;;;;;;;;;;4994269;28;20038;-65
2022/09/13 11:29:23;;;;;;;8.45;5.60;;;;;;;;;;4997574;28;20052;-63
2022/09/13 11:31:55;;;;;;;7.68;5.82;;;;;;;;;;5005018;28;20042;-63
2022/09/13 11:34:41;;;;;;;7.93;6.05;;;;;;;;;;5000764;28;20494;-63
2022/09/13 11:37:09;;;;;;;8.63;5.93;;;;;;;;;;4998785;28;20470;-64
2022/09/13 11:39:41;;;;;;;8.00;5.70;;;;;;;;;;5001116;28;20390;-65
2022/09/13 11:42:19;;;;;;;;;;;;;;;;;;4998524;28;20499;-65
2022/09/13 11:45:21;;;;;;;8.35;5.35;;;;;;;;;;4998359;28;20454;-64
2022/09/13 11:48:05;;;;;;;5.55;5.03;;;;;;;;;;5000337;28;20058;-66
2022/09/13 11:51:22;;;;;;;5.82;4.72;;;;;;;;;;5004709;28;20041;-63
2022/09/13 11:53:54;;;;;;;5.53;4.72;;;;;;;;;;4980944;28;20375;-63
2022/09/13 11:56:49;;;;;;;5.97;4.68;;;;;;;;;;4998397;28;20061;-63
2022/09/13 11:59:19;;;;;;;4.78;4.15;;;;;;;;;;4996331;28;20252;-65
2022/09/13 12:01:49;;;;;;;5.45;4.20;;;;;;;;;;4994617;28;20128;-62
2022/09/13 12:04:24;;;;;;;4.55;3.13;;;;;;;;;;5001200;28;20033;-65
2022/09/13 12:06:58;;;;;;;5.22;3.78;;;;;;;;;;5005179;28;20025;-63
2022/09/13 12:09:44;;;;;;;4.43;3.60;;;;;;;;;;5004872;28;20045;-63
2022/09/13 12:12:12;;;;;;;4.60;3.72;;;;;;;;;;4998057;28;20046;-64
2022/09/13 12:15:14;;;;;;;5.00;4.13;;;;;;;;;;4999844;28;20033;-63
2022/09/13 12:17:44;;;;;;;4.68;4.10;;;;;;;;;;4988495;28;20957;-63
2022/09/13 12:20:35;;;;;;;5.88;4.05;;;;;;;;;;4996134;28;20092;-63
2022/09/13 12:23:07;;;;;;;6.32;3.95;;;;;;;;;;4991352;28;20092;-64
2022/09/13 12:25:45;;;;;;;8.00;4.07;;;;;;;;;;4993952;28;20434;-63
2022/09/13 12:28:21;;;;;;;4.88;4.22;;;;;;;;;;4991411;28;20381;-65
2022/09/13 12:30:53;;;;;;;5.82;4.25;;;;;;;;;;4997949;28;20029;-64
2022/09/13 12:33:19;;;;;;;4.20;3.80;;;;;;;;;;4997361;28;20207;-64
2022/09/13 12:36:00;;;;;;;5.50;3.45;;;;;;;;;;5013391;28;20953;-64
2022/09/13 12:38:51;;;;;;;5.32;3.90;;;;;;;;;;4997105;28;20552;-64
2022/09/13 12:41:34;;;;;;;8.43;3.70;;;;;;;;;;4990918;28;20030;-65
2022/09/13 12:44:18;;;;;;;;;;;;;;;;;;5016678;28;20116;-64
2022/09/13 12:46:50;;;;;;;6.32;4.18;;;;;;;;;;4998281;28;19921;-66
2022/09/13 12:49:33;;;;;;;26.95;5.40;;;;;;;;;;5000570;28;20025;-63
2022/09/13 12:52:10;;;;;;;9.77;5.38;;;;;;;;;;4999264;28;20088;-64
2022/09/13 12:55:07;;;;;;;4.18;3.78;;;;;;;;;;5003126;28;20030;-64
2022/09/13 12:57:51;;;;;;;4.10;3.70;;;;;;;;;;4998363;28;20077;-64
2022/09/13 13:00:23;;;;;;;8.13;3.90;;;;;;;;;;5000919;28;20034;-64
2022/09/13 13:03:12;;;;;;;7.55;3.92;;;;;;;;;;4999309;28;20050;-63
2022/09/13 13:05:52;;;;;;;5.55;4.65;;;;;;;;;;4995324;28;20034;-63
2022/09/13 13:08:20;;;;;;;4.85;4.20;;;;;;;;;;5017372;28;20129;-65
2022/09/13 13:10:59;;;;;;;4.40;4.00;;;;;;;;;;4998218;28;20077;-65
2022/09/13 13:13:41;;;;;;;5.45;3.72;;;;;;;;;;4997421;28;20402;-63
2022/09/13 13:16:39;;;;;;;5.30;3.97;;;;;;;;;;4997052;28;20018;-64
2022/09/13 13:19:31;;;;;;;4.30;3.50;;;;;;;;;;4975736;28;20109;-64
2022/09/13 13:22:44;;;;;;;5.13;3.65;;;;;;;;;;4993796;28;20524;-64
2022/09/13 13:25:32;;;;;;;4.72;3.42;;;;;;;;;;4958883;28;20427;-64
2022/09/13 13:27:59;;;;;;;5.18;3.78;;;;;;;;;;4940578;28;20030;-63
2022/09/13 13:30:41;;;;;;;4.53;3.80;;;;;;;;;;4982962;28;20127;-63
2022/09/13 13:33:28;;;;;;;3.50;2.95;;;;;;;;;;4996962;28;20077;-63
2022/09/13 13:35:54;;;;;;;4.50;3.08;;;;;;;;;;4999393;28;20030;-64
2022/09/13 13:38:22;;;;;;;3.45;2.80;;;;;;;;;;5001218;28;20088;-65
2022/09/13 13:40:49;;;;;;;4.95;2.75;;;;;;;;;;4997346;28;20046;-63
2022/09/13 13:43:28;;;;;;;4.30;2.70;;;;;;;;;;4998208;28;20448;-64
2022/09/13 13:46:25;;;;;;;5.45;2.70;;;;;;;;;;5005040;28;20041;-64
2022/09/13 13:48:50;;;;;;;4.05;2.55;;;;;;;;;;5003756;28;20041;-64
2022/09/13 13:51:24;;;;;;;6.03;3.15;;;;;;;;;;5004499;28;20049;-65
2022/09/13 13:53:55;;;;;;;3.85;2.67;;;;;;;;;;5001673;28;20124;-65
2022/09/13 13:56:20;;;;;;;3.28;2.58;;;;;;;;;;5001182;28;20045;-63
2022/09/13 13:58:53;;;;;;;2.60;2.40;;;;;;;;;;4995173;28;20038;-63
2022/09/13 14:01:21;;;;;;;;;;;;;;;;;;4995985;28;20041;-64
2022/09/13 14:04:10;;;;;;;3.88;2.60;;;;;;;;;;4997194;28;19936;-63
2022/09/13 14:06:52;;;;;;;7.18;3.22;;;;;;;;;;4998340;28;20050;-63
2022/09/13 14:09:27;;;;;;;3.30;2.75;;;;;;;;;;4999902;28;20026;-66
2022/09/13 14:12:12;;;;;;;6.43;2.80;;;;;;;;;;4996750;28;20706;-63
2022/09/13 14:15:15;;;;;;;5.93;2.45;;;;;;;;;;4997699;28;20048;-64
2022/09/13 14:17:59;;;;;;;;;;;;;;;;;;4997551;28;20030;-63
2022/09/13 14:20:25;;;;;;;4.65;3.28;;;;;;;;;;5005682;28;20008;-65
2022/09/13 14:23:09;;;;;;;3.28;2.78;;;;;;;;;;4997222;28;20046;-65
2022/09/13 14:25:34;;;;;;;4.43;3.10;;;;;;;;;;4997683;28;20470;-64
2022/09/13 14:28:01;;;;;;;5.22;3.00;;;;;;;;;;4996864;28;20045;-64
2022/09/13 14:30:38;;;;;;;5.40;2.88;;;;;;;;;;5000905;28;20558;-63
2022/09/13 14:33:04;;;;;;;7.40;2.70;;;;;;;;;;4997076;28;20065;-63
2022/09/13 14:35:36;;;;;;;5.25;3.20;;;;;;;;;;4996524;28;20060;-64
2022/09/13 14:38:24;;;;;;;3.72;3.05;;;;;;;;;;5000929;28;20042;-65
2022/09/13 14:40:57;;;;;;;3.40;2.80;;;;;;;;;;5004929;28;20489;-65
2022/09/13 14:43:25;;;;;;;4.78;3.08;;;;;;;;;;4997668;28;20494;-63
2022/09/13 14:46:01;;;;;;;5.70;3.20;;;;;;;;;;4998187;28;20553;-64
2022/09/13 14:48:35;;;;;;;8.10;3.50;;;;;;;;;;5000747;28;20168;-64
2022/09/13 14:51:17;;;;;;;7.68;3.97;;;;;;;;;;4997551;28;20041;-63
2022/09/13 14:53:45;;;;;;;6.18;3.78;;;;;;;;;;4997172;28;20037;-64
2022/09/13 14:56:41;;;;;;;4.00;3.40;;;;;;;;;;4999989;28;20060;-64
2022/09/13 14:59:15;;;;;;;5.55;3.85;;;;;;;;;;4988526;28;20169;-63
2022/09/13 15:01:41;;;;;;;6.43;3.55;;;;;;;;;;4995893;28;20044;-63
2022/09/13 15:04:06;;;;;;;6.22;3.40;;;;;;;;;;4997035;28;20026;-63
2022/09/13 15:06:43;;;;;;;5.60;3.30;;;;;;;;;;4997953;28;20506;-63
2022/09/13 15:09:11;;;;;;;5.25;3.00;;;;;;;;;;4996044;28;20034;-64
2022/09/13 15:11:56;;;;;;;5.63;3.15;;;;;;;;;;4999219;28;20045;-63
2022/09/13 15:14:33;;;;;;;6.38;3.17;;;;;;;;;;4996808;28;20258;-64
2022/09/13 15:17:05;;;;;;;5.20;3.10;;;;;;;;;;4997583;28;20064;-64
2022/09/13 15:19:47;;;;;;;7.10;3.13;;;;;;;;;;4999280;28;20045;-64
2022/09/13 15:22:24;;;;;;;8.73;3.03;;;;;;;;;;4998089;28;20363;-63
2022/09/13 15:24:57;;;;;;;7.25;3.17;;;;;;;;;;4998012;28;20512;-64